Time;durP1;ratioP1;P1;durP2;ratioP2;P2;SDS_P1;SDS_P2;PMS_P1;PMS_P2;Temp;Humidity;BMP_temperature;BMP_pressure;BME280_temperature;BME280_humidity;BME280_pressure;Samples;Min_cycle;Max_cycle;Signal;HPM_P1;HPM_P2
2023/03/15 00:00:21;;;;;;;2.30;1.17;;;15.30;52.80;;;;;;5053704;28;20181;-55
2023/03/15 00:02:46;;;;;;;2.95;1.38;;;15.30;53.60;;;;;;5053432;28;20249;-55
2023/03/15 00:05:12;;;;;;;2.38;1.33;;;15.30;52.90;;;;;;5052887;28;20199;-56
2023/03/15 00:07:38;;;;;;;1.98;1.27;;;15.20;52.90;;;;;;5053435;28;20656;-52
2023/03/15 00:10:04;;;;;;;1.77;1.10;;;15.20;52.90;;;;;;5053464;28;20236;-55
2023/03/15 00:12:29;;;;;;;2.20;1.60;;;15.20;52.90;;;;;;5052781;28;20257;-51
2023/03/15 00:14:55;;;;;;;2.50;1.20;;;15.30;52.90;;;;;;5053279;28;20262;-54
2023/03/15 00:17:21;;;;;;;2.03;1.08;;;15.20;52.80;;;;;;5053254;28;20203;-52
2023/03/15 00:19:47;;;;;;;2.17;1.10;;;15.20;52.80;;;;;;5052248;28;20249;-53
2023/03/15 00:22:13;;;;;;;1.85;1.23;;;15.20;52.80;;;;;;5053192;28;20653;-53
2023/03/15 00:24:38;;;;;;;2.20;1.17;;;15.20;52.90;;;;;;5052688;28;20270;-53
2023/03/15 00:27:04;;;;;;;1.77;1.30;;;15.20;52.80;;;;;;5053150;28;20217;-53
2023/03/15 00:29:30;;;;;;;2.90;1.00;;;15.20;52.80;;;;;;5053347;28;20179;-52
2023/03/15 00:31:56;;;;;;;1.60;1.08;;;15.20;53.10;;;;;;5052175;28;20186;-55
2023/03/15 00:34:24;;;;;;;1.75;0.90;;;15.20;52.80;;;;;;5053096;28;20175;-53
2023/03/15 00:36:52;;;;;;;2.25;1.23;;;15.20;53.00;;;;;;5052793;28;20170;-55
2023/03/15 00:39:18;;;;;;;1.10;1.00;;;15.10;52.90;;;;;;5052498;28;20190;-54
2023/03/15 00:41:44;;;;;;;2.08;1.35;;;15.10;53.00;;;;;;5052928;28;20175;-56
2023/03/15 00:44:10;;;;;;;1.48;0.90;;;15.20;53.10;;;;;;5052973;28;20175;-55
2023/03/15 00:46:36;;;;;;;1.60;1.00;;;15.10;52.70;;;;;;5052392;28;20183;-55
2023/03/15 00:49:01;;;;;;;2.15;1.02;;;15.10;52.80;;;;;;5052986;28;20232;-54
2023/03/15 00:51:27;;;;;;;2.75;1.20;;;15.10;53.00;;;;;;5052829;28;20287;-51
2023/03/15 00:53:52;;;;;;;1.17;0.90;;;15.10;52.80;;;;;;5051438;28;20179;-51
2023/03/15 00:56:20;;;;;;;1.00;0.82;;;15.10;53.00;;;;;;5052891;28;20186;-55
2023/03/15 00:58:45;;;;;;;1.45;1.08;;;15.10;52.80;;;;;;5052599;28;20186;-55
2023/03/15 01:01:16;;;;;;;2.10;1.10;;;15.10;53.00;;;;;;5052035;28;20171;-50
2023/03/15 01:03:41;;;;;;;0.88;0.88;;;15.10;52.90;;;;;;5052826;28;20222;-57
2023/03/15 01:06:08;;;;;;;1.15;1.05;;;15.10;52.90;;;;;;5052899;28;20652;-54
2023/03/15 01:08:34;;;;;;;1.23;0.75;;;15.10;52.90;;;;;;5051988;28;20175;-54
2023/03/15 01:11:03;;;;;;;1.33;1.00;;;15.10;52.90;;;;;;5052488;28;20626;-56
2023/03/15 01:13:29;;;;;;;1.30;0.75;;;15.00;52.90;;;;;;5052634;28;20186;-55
2023/03/15 01:15:54;;;;;;;0.98;0.80;;;15.10;53.00;;;;;;5051613;28;20175;-56
2023/03/15 01:18:20;;;;;;;1.48;0.90;;;15.10;52.90;;;;;;5052415;28;20751;-54
2023/03/15 01:20:46;;;;;;;0.80;0.80;;;15.10;52.90;;;;;;5051952;28;20197;-53
2023/03/15 01:23:11;;;;;;;0.98;0.70;;;15.10;52.90;;;;;;5052560;28;20705;-52
2023/03/15 01:25:37;;;;;;;0.88;0.80;;;15.00;52.80;;;;;;5052749;28;20262;-54
2023/03/15 01:28:02;;;;;;;1.40;0.75;;;15.10;52.90;;;;;;5051606;28;20171;-55
2023/03/15 01:30:28;;;;;;;1.05;0.88;;;15.00;53.00;;;;;;5052509;28;20171;-55
2023/03/15 01:32:53;;;;;;;1.67;1.00;;;15.00;52.80;;;;;;5052109;28;20171;-54
2023/03/15 01:35:19;;;;;;;1.75;0.90;;;15.00;52.90;;;;;;5051662;28;20175;-54
2023/03/15 01:37:44;;;;;;;0.90;0.82;;;15.00;52.90;;;;;;5052112;28;20182;-54
2023/03/15 01:40:12;;;;;;;2.13;0.90;;;15.00;52.90;;;;;;5051122;28;20171;-50
2023/03/15 01:43:14;;;;;;;0.70;0.70;;;15.00;52.90;;;;;;5051699;28;20215;-55
2023/03/15 01:46:00;;;;;;;1.45;1.00;;;15.00;52.90;;;;;;5049469;28;20190;-54
2023/03/15 01:48:45;;;;;;;0.57;0.50;;;15.00;52.90;;;;;;5052456;28;20186;-53
2023/03/15 01:51:13;;;;;;;0.75;0.70;;;15.00;52.90;;;;;;5051702;28;20175;-54
2023/03/15 01:53:39;;;;;;;0.90;0.70;;;15.00;52.90;;;;;;5052309;28;20171;-53
2023/03/15 01:56:04;;;;;;;0.98;0.98;;;15.00;53.00;;;;;;5051508;28;20182;-55
2023/03/15 01:58:30;;;;;;;0.60;0.60;;;15.00;52.90;;;;;;5052558;28;20541;-53
2023/03/15 02:00:55;;;;;;;1.25;0.82;;;15.00;53.00;;;;;;5050952;28;20262;-55
2023/03/15 02:03:24;;;;;;;0.80;0.80;;;15.00;52.90;;;;;;5051725;28;20213;-53
2023/03/15 02:05:57;;;;;;;0.85;0.80;;;15.00;53.00;;;;;;5055564;28;20179;-57
2023/03/15 02:08:25;;;;;;;1.00;0.90;;;15.00;53.60;;;;;;5055958;28;20175;-56
2023/03/15 02:10:52;;;;;;;1.15;0.85;;;15.00;52.90;;;;;;5053718;28;20649;-52
2023/03/15 02:13:21;;;;;;;0.95;0.70;;;14.90;53.00;;;;;;5054341;28;20531;-52
2023/03/15 02:15:47;;;;;;;1.85;1.02;;;14.90;53.00;;;;;;5055493;28;20336;-52
2023/03/15 02:18:13;;;;;;;0.95;0.95;;;14.90;53.10;;;;;;5053664;28;20313;-50
2023/03/15 02:20:59;;;;;;;0.88;0.77;;;14.90;53.60;;;;;;5055705;28;20626;-53
2023/03/15 02:23:24;;;;;;;0.98;0.77;;;14.90;53.00;;;;;;5055679;28;20219;-52
2023/03/15 02:26:13;;;;;;;1.55;0.70;;;14.90;53.00;;;;;;5054710;28;20308;-53
2023/03/15 02:28:38;;;;;;;0.57;0.57;;;14.90;52.90;;;;;;5044389;28;20195;-54
2023/03/15 02:31:04;;;;;;;0.98;0.70;;;14.90;53.10;;;;;;5054030;28;20298;-55
2023/03/15 02:33:44;;;;;;;1.15;0.85;;;14.90;53.00;;;;;;5055254;28;20214;-53
2023/03/15 02:36:19;;;;;;;1.17;0.70;;;14.90;53.10;;;;;;5055596;28;20174;-53
2023/03/15 02:38:45;;;;;;;0.60;0.60;;;14.90;53.70;;;;;;5054159;28;20187;-55
2023/03/15 02:41:11;;;;;;;0.90;0.63;;;14.90;52.90;;;;;;5055271;28;20175;-55
2023/03/15 02:43:36;;;;;;;0.85;0.60;;;14.90;53.10;;;;;;5054176;28;20211;-54
2023/03/15 02:46:02;;;;;;;1.58;0.63;;;14.90;53.00;;;;;;5054181;28;20656;-54
2023/03/15 02:48:28;;;;;;;0.63;0.60;;;14.90;53.20;;;;;;5054087;28;20190;-52
2023/03/15 02:50:53;;;;;;;1.23;0.70;;;14.80;53.10;;;;;;5053682;28;20182;-52
2023/03/15 02:53:19;;;;;;;1.45;0.90;;;14.90;53.00;;;;;;5054372;28;20171;-51
2023/03/15 02:55:44;;;;;;;1.10;0.65;;;14.80;53.00;;;;;;5054687;28;20167;-50
2023/03/15 02:58:10;;;;;;;1.05;0.90;;;14.80;53.00;;;;;;5055159;28;20179;-51
2023/03/15 03:00:35;;;;;;;0.63;0.60;;;14.80;53.10;;;;;;5054436;28;20532;-55
2023/03/15 03:03:01;;;;;;;1.20;0.75;;;14.80;53.00;;;;;;5054622;28;20595;-51
2023/03/15 03:05:27;;;;;;;1.65;1.08;;;14.80;53.20;;;;;;5054909;28;20172;-54
2023/03/15 03:07:52;;;;;;;0.60;0.60;;;14.80;53.10;;;;;;5053916;28;20186;-52
2023/03/15 03:10:19;;;;;;;0.77;0.60;;;14.80;53.20;;;;;;5054603;28;20171;-52
2023/03/15 03:12:45;;;;;;;0.50;0.50;;;14.80;53.30;;;;;;5054634;28;20183;-55
2023/03/15 03:15:10;;;;;;;1.75;0.70;;;14.80;53.10;;;;;;5053121;28;20222;-51
2023/03/15 03:17:37;;;;;;;1.23;0.70;;;14.80;53.10;;;;;;5054228;28;20660;-51
2023/03/15 03:20:06;;;;;;;1.10;0.60;;;14.80;53.10;;;;;;5054386;28;20266;-52
2023/03/15 03:22:33;;;;;;;1.00;0.60;;;14.80;53.10;;;;;;5053825;28;20237;-53
2023/03/15 03:24:58;;;;;;;0.75;0.60;;;14.80;53.20;;;;;;5054175;28;20531;-51
2023/03/15 03:27:24;;;;;;;1.08;0.50;;;14.80;53.20;;;;;;5053624;28;20175;-50
2023/03/15 03:29:49;;;;;;;0.50;0.50;;;14.70;53.20;;;;;;5054317;28;20178;-52
2023/03/15 03:32:15;;;;;;;0.93;0.50;;;14.80;53.20;;;;;;5054523;28;20522;-53
2023/03/15 03:34:41;;;;;;;1.08;0.73;;;14.70;53.20;;;;;;5053670;28;20736;-52
2023/03/15 03:37:06;;;;;;;0.60;0.60;;;14.70;53.20;;;;;;5054085;28;20539;-51
2023/03/15 03:39:32;;;;;;;0.68;0.68;;;14.70;53.30;;;;;;5054061;28;20532;-53
2023/03/15 03:41:57;;;;;;;0.73;0.60;;;14.70;53.20;;;;;;5053011;28;20214;-52
2023/03/15 03:44:23;;;;;;;1.13;0.77;;;14.70;53.90;;;;;;5054235;28;20186;-56
2023/03/15 03:46:48;;;;;;;1.30;0.77;;;14.70;53.30;;;;;;5053844;28;20182;-51
2023/03/15 03:49:14;;;;;;;1.00;0.70;;;14.70;53.20;;;;;;5053321;28;20175;-51
2023/03/15 03:51:40;;;;;;;0.93;0.70;;;14.70;53.30;;;;;;5054000;28;20179;-50
2023/03/15 03:54:05;;;;;;;1.17;0.75;;;14.70;53.40;;;;;;5053568;28;20187;-50
2023/03/15 03:56:31;;;;;;;0.63;0.60;;;14.70;53.30;;;;;;5053432;28;20172;-50
2023/03/15 03:58:56;;;;;;;0.68;0.68;;;14.70;53.30;;;;;;5053768;28;20179;-54
2023/03/15 04:01:22;;;;;;;0.60;0.60;;;14.70;53.40;;;;;;5053921;28;20171;-56
2023/03/15 04:03:48;;;;;;;0.65;0.50;;;14.70;53.40;;;;;;5052581;28;20732;-54
2023/03/15 04:06:13;;;;;;;0.85;0.60;;;14.70;53.60;;;;;;5053691;28;20266;-52
2023/03/15 04:08:40;;;;;;;0.60;0.50;;;14.70;53.60;;;;;;5053533;28;20181;-52
2023/03/15 04:11:05;;;;;;;0.90;0.70;;;14.70;53.30;;;;;;5052840;28;20198;-55
2023/03/15 04:13:31;;;;;;;1.13;0.82;;;14.70;53.40;;;;;;5053696;28;20194;-54
2023/03/15 04:15:57;;;;;;;0.80;0.60;;;14.60;53.50;;;;;;5053237;28;20686;-55
2023/03/15 04:18:22;;;;;;;0.40;0.40;;;14.60;53.50;;;;;;5052693;28;20309;-55
2023/03/15 04:20:48;;;;;;;0.70;0.70;;;14.60;53.40;;;;;;5053295;28;20628;-53
2023/03/15 04:23:19;;;;;;;0.47;0.47;;;14.60;53.50;;;;;;5053280;28;20202;-55
2023/03/15 04:25:47;;;;;;;0.70;0.40;;;14.60;53.40;;;;;;5052524;28;20328;-54
2023/03/15 04:28:13;;;;;;;0.70;0.70;;;14.60;53.70;;;;;;5053327;28;20178;-53
2023/03/15 04:30:38;;;;;;;0.60;0.60;;;14.60;53.50;;;;;;5053261;28;20582;-54
2023/03/15 04:33:04;;;;;;;0.60;0.60;;;14.60;53.50;;;;;;5052725;28;20175;-54
2023/03/15 04:35:31;;;;;;;1.58;0.63;;;14.60;53.70;;;;;;5053303;28;20344;-55
2023/03/15 04:37:57;;;;;;;1.50;0.60;;;14.60;53.50;;;;;;5052201;28;20254;-53
2023/03/15 04:40:23;;;;;;;0.60;0.60;;;14.60;53.60;;;;;;5053334;28;20274;-56
2023/03/15 04:42:50;;;;;;;0.45;0.43;;;14.60;53.70;;;;;;5052702;28;20243;-55
2023/03/15 04:45:16;;;;;;;0.93;0.82;;;14.60;53.70;;;;;;5052483;28;20182;-55
2023/03/15 04:47:41;;;;;;;0.50;0.50;;;14.60;53.50;;;;;;5053108;28;20201;-54
2023/03/15 04:50:08;;;;;;;1.40;0.70;;;14.60;53.50;;;;;;5053087;28;20626;-53
2023/03/15 04:52:33;;;;;;;0.60;0.60;;;14.60;53.50;;;;;;5052210;28;20179;-55
2023/03/15 04:54:59;;;;;;;0.50;0.50;;;14.60;53.50;;;;;;5052804;28;20695;-54
2023/03/15 04:57:25;;;;;;;0.80;0.80;;;14.60;53.80;;;;;;5053027;28;20262;-55
2023/03/15 04:59:50;;;;;;;1.00;0.90;;;14.60;53.70;;;;;;5051975;28;20167;-56
2023/03/15 05:02:16;;;;;;;0.70;0.70;;;14.60;53.70;;;;;;5052984;28;20217;-54
2023/03/15 05:04:41;;;;;;;0.50;0.50;;;14.70;53.60;;;;;;5052938;28;20644;-53
2023/03/15 05:07:07;;;;;;;2.17;0.80;;;14.70;53.50;;;;;;5052004;28;20173;-53
2023/03/15 05:09:36;;;;;;;0.68;0.68;;;14.70;53.50;;;;;;5053041;28;20176;-54
2023/03/15 05:12:03;;;;;;;0.60;0.60;;;14.70;53.50;;;;;;5052345;28;20664;-51
2023/03/15 05:14:28;;;;;;;0.70;0.70;;;14.70;53.60;;;;;;5052176;28;20245;-50
2023/03/15 05:16:57;;;;;;;0.80;0.70;;;14.70;53.60;;;;;;5052317;28;20626;-51
2023/03/15 05:19:23;;;;;;;0.60;0.60;;;14.70;53.60;;;;;;5052531;28;20227;-50
2023/03/15 05:21:48;;;;;;;0.70;0.70;;;14.60;53.50;;;;;;5051459;28;20629;-54
2023/03/15 05:24:14;;;;;;;0.98;0.70;;;14.70;53.50;;;;;;5052595;28;20266;-52
2023/03/15 05:26:39;;;;;;;0.50;0.50;;;14.60;53.60;;;;;;5052724;28;20262;-54
2023/03/15 05:29:05;;;;;;;2.13;0.60;;;14.60;53.50;;;;;;5051791;28;20171;-55
2023/03/15 05:31:35;;;;;;;0.77;0.77;;;14.60;53.60;;;;;;5052766;28;20175;-54
2023/03/15 05:34:03;;;;;;;0.57;0.52;;;14.60;53.50;;;;;;5051477;28;20551;-55
2023/03/15 05:36:31;;;;;;;0.73;0.65;;;14.60;53.60;;;;;;5052674;28;20175;-50
2023/03/15 05:38:57;;;;;;;1.45;0.60;;;14.60;53.60;;;;;;5053718;28;20179;-53
2023/03/15 05:41:22;;;;;;;1.17;0.50;;;14.50;53.60;;;;;;5055868;28;20167;-55
2023/03/15 05:43:49;;;;;;;0.68;0.68;;;14.50;53.60;;;;;;5056051;28;20229;-53
2023/03/15 05:46:14;;;;;;;0.70;0.50;;;14.50;53.60;;;;;;5056386;28;20175;-56
2023/03/15 05:48:40;;;;;;;2.10;0.73;;;14.50;53.70;;;;;;5055656;28;20198;-51
2023/03/15 05:51:05;;;;;;;1.02;0.68;;;14.50;53.70;;;;;;5056203;28;20167;-53
2023/03/15 05:53:31;;;;;;;1.67;0.90;;;14.50;53.80;;;;;;5056371;28;20171;-55
2023/03/15 05:55:56;;;;;;;0.98;0.60;;;14.50;53.60;;;;;;5055116;28;20313;-50
2023/03/15 05:58:22;;;;;;;0.80;0.80;;;14.50;53.60;;;;;;5056337;28;20175;-51
2023/03/15 06:00:48;;;;;;;0.75;0.75;;;14.40;53.60;;;;;;5055790;28;20171;-51
2023/03/15 06:03:14;;;;;;;1.13;0.80;;;14.50;53.60;;;;;;5055190;28;20206;-54
2023/03/15 06:05:40;;;;;;;0.63;0.63;;;14.50;53.40;;;;;;5055839;28;20611;-55
2023/03/15 06:08:06;;;;;;;0.50;0.50;;;14.60;53.20;;;;;;5055787;28;20179;-55
2023/03/15 06:10:32;;;;;;;1.25;0.80;;;14.70;53.20;;;;;;5055233;28;20570;-52
2023/03/15 06:12:58;;;;;;;0.70;0.70;;;14.80;53.00;;;;;;5055615;28;20247;-54
2023/03/15 06:15:24;;;;;;;0.95;0.57;;;15.00;52.90;;;;;;5056086;28;20215;-50
2023/03/15 06:17:49;;;;;;;0.88;0.60;;;15.20;52.60;;;;;;5054495;28;20203;-52
2023/03/15 06:20:15;;;;;;;0.93;0.63;;;15.40;52.40;;;;;;5056055;28;20171;-53
2023/03/15 06:22:40;;;;;;;0.50;0.50;;;15.50;52.20;;;;;;5055828;28;20677;-54
2023/03/15 06:25:06;;;;;;;2.28;0.85;;;15.70;52.10;;;;;;5054764;28;20167;-52
2023/03/15 06:27:32;;;;;;;0.50;0.50;;;15.90;51.70;;;;;;5055658;28;20202;-52
2023/03/15 06:29:58;;;;;;;1.08;0.98;;;16.10;51.40;;;;;;5055476;28;20179;-54
2023/03/15 06:32:23;;;;;;;0.50;0.40;;;16.10;51.30;;;;;;5054748;28;20203;-54
2023/03/15 06:34:49;;;;;;;0.40;0.40;;;16.20;51.20;;;;;;5055104;28;20206;-54
2023/03/15 06:37:15;;;;;;;0.60;0.60;;;16.20;51.20;;;;;;5054972;28;20171;-53
2023/03/15 06:39:40;;;;;;;0.50;0.50;;;16.30;51.10;;;;;;5054780;28;20229;-54
2023/03/15 06:42:07;;;;;;;0.98;0.50;;;16.40;50.90;;;;;;5054602;28;20195;-56
2023/03/15 06:44:33;;;;;;;0.60;0.60;;;16.50;50.90;;;;;;5054208;28;20202;-56
2023/03/15 06:46:59;;;;;;;0.47;0.47;;;16.50;50.80;;;;;;5054484;28;20198;-53
2023/03/15 06:49:24;;;;;;;0.95;0.40;;;16.50;50.80;;;;;;5054805;28;20198;-55
2023/03/15 06:51:50;;;;;;;0.77;0.60;;;16.60;50.80;;;;;;5053781;28;20250;-55
2023/03/15 06:54:16;;;;;;;0.50;0.50;;;16.60;50.80;;;;;;5054680;28;20698;-55
2023/03/15 06:56:42;;;;;;;2.60;0.47;;;16.60;50.80;;;;;;5054455;28;20521;-55
2023/03/15 06:59:07;;;;;;;0.40;0.40;;;16.50;50.90;;;;;;5053847;28;20318;-56
2023/03/15 07:01:33;;;;;;;0.30;0.30;;;16.60;50.90;;;;;;5054425;28;20258;-55
2023/03/15 07:03:58;;;;;;;0.45;0.43;;;16.60;50.90;;;;;;5053883;28;20214;-56
2023/03/15 07:06:24;;;;;;;0.40;0.40;;;16.70;51.00;;;;;;5053567;28;20182;-50
2023/03/15 07:08:49;;;;;;;0.43;0.40;;;16.90;50.80;;;;;;5053863;28;20171;-54
2023/03/15 07:11:15;;;;;;;0.70;0.50;;;17.10;50.40;;;;;;5054336;28;20224;-55
2023/03/15 07:13:40;;;;;;;0.75;0.40;;;17.30;50.20;;;;;;5053597;28;20253;-52
2023/03/15 07:16:06;;;;;;;0.40;0.40;;;17.40;50.00;;;;;;5053795;28;20634;-56
2023/03/15 07:18:34;;;;;;;0.40;0.40;;;17.30;50.00;;;;;;5054125;28;20268;-54
2023/03/15 07:21:01;;;;;;;0.80;0.63;;;17.50;50.00;;;;;;5053259;28;20267;-55
2023/03/15 07:23:26;;;;;;;0.73;0.40;;;17.50;50.00;;;;;;5053984;28;20309;-55
2023/03/15 07:25:53;;;;;;;0.73;0.50;;;17.60;49.90;;;;;;5053787;28;20258;-54
2023/03/15 07:28:19;;;;;;;1.00;0.43;;;17.60;50.00;;;;;;5053126;28;20191;-54
2023/03/15 07:30:58;;;;;;;0.47;0.47;;;17.60;49.90;;;;;;5053472;28;20258;-54
2023/03/15 07:33:24;;;;;;;0.43;0.38;;;17.70;49.80;;;;;;5054203;28;20178;-56
2023/03/15 07:35:50;;;;;;;0.82;0.50;;;17.60;49.90;;;;;;5052879;28;20630;-53
2023/03/15 07:38:15;;;;;;;1.42;0.60;;;17.60;49.90;;;;;;5053857;28;20179;-55
2023/03/15 07:40:41;;;;;;;0.57;0.50;;;17.60;49.90;;;;;;5052985;28;20541;-55
2023/03/15 07:43:07;;;;;;;0.40;0.40;;;17.60;50.10;;;;;;5053638;28;20203;-56
2023/03/15 07:45:33;;;;;;;1.38;0.80;;;17.60;50.30;;;;;;5053841;28;20179;-55
2023/03/15 07:47:59;;;;;;;0.50;0.50;;;17.50;50.30;;;;;;5052471;28;20175;-56
2023/03/15 07:50:25;;;;;;;0.40;0.40;;;17.50;50.30;;;;;;5053483;28;20171;-53
2023/03/15 07:52:51;;;;;;;0.40;0.40;;;17.50;50.40;;;;;;5052981;28;20216;-53
2023/03/15 07:55:16;;;;;;;0.50;0.30;;;17.50;50.60;;;;;;5052812;28;20179;-55
2023/03/15 07:57:42;;;;;;;0.52;0.50;;;17.50;50.60;;;;;;5052984;28;20175;-54
2023/03/15 08:00:10;;;;;;;0.80;0.45;;;17.40;50.70;;;;;;5053200;28;20256;-56
2023/03/15 08:02:36;;;;;;;0.28;0.28;;;17.50;50.80;;;;;;5052290;28;20364;-57
2023/03/15 08:05:03;;;;;;;0.40;0.40;;;17.50;50.80;;;;;;5053026;28;20263;-56
2023/03/15 08:07:29;;;;;;;0.63;0.50;;;17.40;50.80;;;;;;5053307;28;20187;-57
2023/03/15 08:09:56;;;;;;;0.90;0.60;;;17.40;50.90;;;;;;5052270;28;20182;-55
2023/03/15 08:12:22;;;;;;;0.40;0.40;;;17.30;51.10;;;;;;5053135;28;20186;-56
2023/03/15 08:14:48;;;;;;;0.80;0.57;;;17.20;51.20;;;;;;5052948;28;20171;-56
2023/03/15 08:17:15;;;;;;;1.00;0.40;;;17.30;51.30;;;;;;5052555;28;20170;-55
2023/03/15 08:19:40;;;;;;;0.95;0.47;;;17.30;51.40;;;;;;5052909;28;20235;-55
2023/03/15 08:22:06;;;;;;;0.35;0.32;;;17.30;52.00;;;;;;5052618;28;20266;-55
2023/03/15 08:24:34;;;;;;;0.30;0.28;;;17.30;51.40;;;;;;5052175;28;20175;-56
2023/03/15 08:27:00;;;;;;;0.40;0.40;;;17.30;51.40;;;;;;5052462;28;20232;-56
2023/03/15 08:29:26;;;;;;;0.77;0.60;;;17.40;51.40;;;;;;5052974;28;20171;-54
2023/03/15 08:31:51;;;;;;;0.65;0.65;;;17.40;51.50;;;;;;5051745;28;20222;-52
2023/03/15 08:34:17;;;;;;;0.77;0.60;;;17.40;51.50;;;;;;5052697;28;20175;-57
2023/03/15 08:36:42;;;;;;;1.25;0.60;;;17.40;51.60;;;;;;5052443;28;20189;-54
2023/03/15 08:39:08;;;;;;;1.55;0.60;;;17.40;51.60;;;;;;5052086;28;20183;-55
2023/03/15 08:41:33;;;;;;;1.20;0.70;;;17.40;51.70;;;;;;5052949;28;20171;-56
2023/03/15 08:43:59;;;;;;;2.10;0.60;;;17.40;51.80;;;;;;5051864;28;20203;-56
2023/03/15 08:46:26;;;;;;;2.40;0.60;;;17.40;51.90;;;;;;5053097;28;20175;-55
2023/03/15 08:48:51;;;;;;;0.80;0.60;;;17.30;52.00;;;;;;5052758;28;20175;-60
2023/03/15 08:51:18;;;;;;;1.38;0.68;;;17.30;52.20;;;;;;5052009;28;20175;-62
2023/03/15 08:53:44;;;;;;;0.73;0.52;;;17.40;52.30;;;;;;5052394;28;20171;-61
2023/03/15 08:56:09;;;;;;;1.23;0.50;;;17.30;52.40;;;;;;5052211;28;20668;-62
2023/03/15 08:58:35;;;;;;;0.68;0.50;;;17.30;52.60;;;;;;5051783;28;20171;-62
2023/03/15 09:01:00;;;;;;;3.33;0.82;;;17.40;52.60;;;;;;5051834;28;20183;-62
2023/03/15 09:03:26;;;;;;;1.00;0.55;;;17.30;52.60;;;;;;5052266;28;20218;-63
2023/03/15 09:05:56;;;;;;;2.38;0.90;;;17.30;52.70;;;;;;5051370;28;20178;-64
2023/03/15 09:08:24;;;;;;;1.05;0.65;;;17.30;52.70;;;;;;5052593;28;20194;-63
2023/03/15 09:10:53;;;;;;;2.55;0.60;;;17.20;52.80;;;;;;5052219;28;20175;-62
2023/03/15 09:13:19;;;;;;;1.08;0.60;;;17.30;53.00;;;;;;5052205;28;20210;-62
2023/03/15 09:15:44;;;;;;;1.60;0.63;;;17.20;53.00;;;;;;5055881;28;20622;-62
2023/03/15 09:18:10;;;;;;;1.70;0.50;;;17.20;53.10;;;;;;5056370;28;20237;-62
2023/03/15 09:20:38;;;;;;;2.13;0.70;;;17.20;53.10;;;;;;5055706;28;20175;-62
2023/03/15 09:23:03;;;;;;;1.75;0.60;;;17.20;53.10;;;;;;5056282;28;20219;-62
2023/03/15 09:25:29;;;;;;;1.15;0.80;;;17.20;53.20;;;;;;5056369;28;20657;-62
2023/03/15 09:27:55;;;;;;;1.73;0.57;;;17.20;53.20;;;;;;5055387;28;20693;-63
2023/03/15 09:30:20;;;;;;;1.90;0.70;;;17.20;53.30;;;;;;5056330;28;20252;-64
2023/03/15 09:32:46;;;;;;;1.38;0.60;;;17.20;53.20;;;;;;5056064;28;20167;-64
2023/03/15 09:35:13;;;;;;;1.50;0.70;;;17.20;53.30;;;;;;5055551;28;20600;-63
2023/03/15 09:37:41;;;;;;;1.95;0.68;;;17.20;53.30;;;;;;5056229;28;20175;-63
2023/03/15 09:40:11;;;;;;;0.80;0.50;;;17.20;53.30;;;;;;5055802;28;20187;-62
2023/03/15 09:43:03;;;;;;;3.95;1.00;;;17.20;53.30;;;;;;5054694;28;20294;-62
2023/03/15 09:46:06;;;;;;;1.63;0.60;;;17.20;53.30;;;;;;5056689;28;20183;-61
2023/03/15 09:48:34;;;;;;;1.83;0.88;;;17.20;53.30;;;;;;5057000;28;20641;-61
2023/03/15 09:51:27;;;;;;;1.58;0.80;;;17.30;53.20;;;;;;5055940;28;20179;-61
2023/03/15 09:53:58;;;;;;;3.65;0.88;;;17.30;53.20;;;;;;5039123;28;20175;-62
2023/03/15 09:56:32;;;;;;;1.23;0.55;;;17.30;53.20;;;;;;5054118;28;20189;-62
2023/03/15 09:58:58;;;;;;;2.72;0.60;;;17.40;53.20;;;;;;5054396;28;20175;-62
2023/03/15 10:01:30;;;;;;;2.75;0.70;;;17.40;53.10;;;;;;5055089;28;20207;-63
2023/03/15 10:03:56;;;;;;;2.58;0.88;;;17.40;53.10;;;;;;5038102;28;20211;-63
2023/03/15 10:06:28;;;;;;;2.20;0.80;;;17.30;53.20;;;;;;5055504;28;20178;-63
2023/03/15 10:08:58;;;;;;;2.25;0.50;;;17.30;54.20;;;;;;5054552;28;20270;-63
2023/03/15 10:11:51;;;;;;;1.85;0.73;;;17.30;53.60;;;;;;5054307;28;20167;-63
2023/03/15 10:14:32;;;;;;;1.50;0.68;;;17.40;53.50;;;;;;5055547;28;20202;-62
2023/03/15 10:16:58;;;;;;;1.73;0.60;;;17.40;53.50;;;;;;5054368;28;20179;-61
2023/03/15 10:19:44;;;;;;;2.05;0.60;;;17.40;53.50;;;;;;5055002;28;20304;-62
2023/03/15 10:22:12;;;;;;;2.95;0.95;;;17.50;53.60;;;;;;5054261;28;20175;-63
2023/03/15 10:25:08;;;;;;;1.63;0.70;;;17.40;53.50;;;;;;5054084;28;20206;-63
2023/03/15 10:27:38;;;;;;;4.63;0.82;;;17.40;53.60;;;;;;5054169;28;20180;-63
2023/03/15 10:30:26;;;;;;;1.02;0.60;;;17.40;53.60;;;;;;5053104;28;20607;-63
2023/03/15 10:33:12;;;;;;;1.95;0.70;;;17.50;53.60;;;;;;5055075;28;20287;-63
2023/03/15 10:35:37;;;;;;;1.52;0.60;;;17.50;53.50;;;;;;5055242;28;20187;-62
2023/03/15 10:38:15;;;;;;;2.13;0.80;;;17.50;53.50;;;;;;5052749;28;20190;-62
2023/03/15 10:41:07;;;;;;;1.35;0.63;;;17.50;53.50;;;;;;5054005;28;20182;-61
2023/03/15 10:43:35;;;;;;;1.38;0.60;;;17.50;53.50;;;;;;5052729;28;20310;-62
2023/03/15 10:46:10;;;;;;;1.20;0.70;;;17.50;53.40;;;;;;5052966;28;20175;-62
2023/03/15 10:48:50;;;;;;;2.63;0.60;;;17.50;53.50;;;;;;5057506;28;20182;-61
2023/03/15 10:51:23;;;;;;;2.30;0.98;;;17.50;53.50;;;;;;5069651;28;20173;-61
2023/03/15 10:54:05;;;;;;;2.42;0.88;;;17.60;53.60;;;;;;5055253;28;20182;-61
2023/03/15 10:56:37;;;;;;;2.25;0.60;;;17.60;53.60;;;;;;5060519;28;20170;-62
2023/03/15 10:59:02;;;;;;;1.35;0.65;;;17.50;53.60;;;;;;5073526;28;20187;-62
2023/03/15 11:01:33;;;;;;;2.17;0.63;;;17.60;53.60;;;;;;5074749;28;20285;-62
2023/03/15 11:04:22;;;;;;;1.33;0.60;;;17.60;53.70;;;;;;5073078;28;20218;-62
2023/03/15 11:06:50;;;;;;;0.73;0.60;;;17.50;53.60;;;;;;5053258;28;20175;-62
2023/03/15 11:09:19;;;;;;;3.03;0.75;;;17.60;53.60;;;;;;5052989;28;20179;-61
2023/03/15 11:12:00;;;;;;;1.73;1.05;;;17.60;53.50;;;;;;5053299;28;20521;-61
2023/03/15 11:15:03;;;;;;;1.50;0.80;;;17.60;53.50;;;;;;5054413;28;20171;-61
2023/03/15 11:17:32;;;;;;;0.90;0.55;;;17.70;53.50;;;;;;5046242;28;20187;-62
2023/03/15 11:20:09;;;;;;;1.98;0.70;;;17.70;53.50;;;;;;5053156;28;20629;-61
2023/03/15 11:22:34;;;;;;;1.85;0.60;;;17.70;53.40;;;;;;5063676;28;20527;-62
2023/03/15 11:25:00;;;;;;;0.82;0.50;;;17.70;53.40;;;;;;5073534;28;20262;-62
2023/03/15 11:27:26;;;;;;;1.60;1.02;;;17.70;53.30;;;;;;5072858;28;20272;-62
2023/03/15 11:29:54;;;;;;;1.58;0.68;;;17.70;53.20;;;;;;5073400;28;20179;-63
2023/03/15 11:32:25;;;;;;;1.25;0.70;;;17.70;53.00;;;;;;5055790;28;20239;-63
2023/03/15 11:34:58;;;;;;;1.65;0.75;;;17.70;52.90;;;;;;5071175;28;20202;-64
2023/03/15 11:37:44;;;;;;;1.70;0.90;;;17.70;52.80;;;;;;5071741;28;20468;-62
2023/03/15 11:40:28;;;;;;;1.50;0.65;;;17.80;52.70;;;;;;5068786;28;20621;-62
2023/03/15 11:43:08;;;;;;;1.50;0.65;;;17.80;52.60;;;;;;5049005;28;20241;-62
2023/03/15 11:45:53;;;;;;;1.35;0.70;;;17.80;52.50;;;;;;5052318;28;20188;-62
2023/03/15 11:48:41;;;;;;;2.33;0.70;;;17.80;52.30;;;;;;5051367;28;20199;-63
2023/03/15 11:51:07;;;;;;;0.93;0.52;;;17.80;52.10;;;;;;5052296;28;20232;-62
2023/03/15 11:53:40;;;;;;;1.60;0.57;;;17.80;52.10;;;;;;5051850;28;20288;-63
2023/03/15 11:56:26;;;;;;;2.45;0.77;;;17.80;52.00;;;;;;5055721;28;20174;-63
2023/03/15 11:59:15;;;;;;;3.92;0.82;;;17.80;51.90;;;;;;5055888;28;20179;-62
2023/03/15 12:02:10;;;;;;;0.68;0.55;;;17.80;51.80;;;;;;5052348;28;20206;-64
2023/03/15 12:04:36;;;;;;;2.63;0.90;;;17.90;51.70;;;;;;5033349;28;20233;-63
2023/03/15 12:07:24;;;;;;;2.50;0.55;;;17.90;51.50;;;;;;5052665;28;20253;-62
2023/03/15 12:10:01;;;;;;;3.10;1.30;;;17.90;51.40;;;;;;5050357;28;20179;-62
2023/03/15 12:12:27;;;;;;;3.92;1.25;;;17.90;51.20;;;;;;5053126;28;20236;-62
2023/03/15 12:15:13;;;;;;;1.55;1.02;;;17.90;51.20;;;;;;5051880;28;20166;-62
2023/03/15 12:17:49;;;;;;;2.92;1.40;;;17.90;51.20;;;;;;5052610;28;20185;-61
2023/03/15 12:20:34;;;;;;;3.67;1.35;;;17.90;51.10;;;;;;5051490;28;20187;-62
2023/03/15 12:23:16;;;;;;;2.95;1.00;;;17.90;51.10;;;;;;5050801;28;20590;-62
2023/03/15 12:25:56;;;;;;;4.80;1.33;;;17.90;51.10;;;;;;5051230;28;20282;-61
2023/03/15 12:28:27;;;;;;;3.13;1.42;;;17.90;51.00;;;;;;5052500;28;20262;-62
2023/03/15 12:30:55;;;;;;;2.88;1.00;;;17.90;51.10;;;;;;5050133;28;20186;-62
2023/03/15 12:33:21;;;;;;;2.40;0.90;;;17.90;51.10;;;;;;5052615;28;20179;-63
2023/03/15 12:35:46;;;;;;;3.33;1.45;;;17.90;51.10;;;;;;5050927;28;20201;-60
2023/03/15 12:38:18;;;;;;;6.72;1.38;;;18.00;51.20;;;;;;5050998;28;20178;-61
2023/03/15 12:40:55;;;;;;;4.60;1.33;;;18.00;51.20;;;;;;5050850;28;20206;-63
2023/03/15 12:43:41;;;;;;;4.90;1.20;;;18.00;51.20;;;;;;5050305;28;20270;-62
2023/03/15 12:46:15;;;;;;;5.40;1.67;;;18.00;51.10;;;;;;5052361;28;20232;-63
2023/03/15 12:49:02;;;;;;;3.30;1.30;;;18.00;50.80;;;;;;5050662;28;20183;-62
2023/03/15 12:51:41;;;;;;;2.72;0.98;;;18.00;50.70;;;;;;5050198;28;20191;-62
2023/03/15 12:54:07;;;;;;;5.38;1.17;;;18.00;50.60;;;;;;5052244;28;20187;-63
2023/03/15 12:56:49;;;;;;;4.28;1.40;;;17.90;50.30;;;;;;5059470;28;20163;-61